createdAt,value
2017-02-24T00:00:37.562Z,32.5
2017-02-24T00:01:37.620Z,32.5
2017-02-24T00:02:37.684Z,32.5
2017-02-24T00:03:36.564Z,32.5
2017-02-24T00:04:36.733Z,32.5
2017-02-24T00:05:36.773Z,32.5
2017-02-24T00:06:37.811Z,32.6
2017-02-24T00:07:36.767Z,32.5
2017-02-24T00:08:37.912Z,32.5
2017-02-24T00:09:36.913Z,32.5
2017-02-24T00:10:36.981Z,32.5
2017-02-24T00:11:38.014Z,32.6
2017-02-24T00:12:37.039Z,32.5
2017-02-24T00:13:38.207Z,32.5
2017-02-24T00:14:38.233Z,32.5
2017-02-24T00:15:38.191Z,32.5
2017-02-24T00:16:38.302Z,32.5
2017-02-24T00:17:38.310Z,32.5
2017-02-24T00:18:38.472Z,32.5
2017-02-24T00:19:37.493Z,32.5
2017-02-24T00:20:37.472Z,32.5
2017-02-24T00:21:37.861Z,32.5
2017-02-24T00:22:38.735Z,32.5
2017-02-24T00:23:37.700Z,32.5
2017-02-24T00:24:38.845Z,32.5
2017-02-24T00:25:38.820Z,32.5
2017-02-24T00:26:37.830Z,32.5
2017-02-24T00:27:38.956Z,32.5
2017-02-24T00:28:39.032Z,32.5
2017-02-24T00:29:38.007Z,32.6
2017-02-24T00:30:39.125Z,32.5
2017-02-24T00:31:38.116Z,32.5
2017-02-24T00:32:38.117Z,32.5
2017-02-24T00:33:39.252Z,32.5
2017-02-24T00:34:38.130Z,32.5
2017-02-24T00:35:38.322Z,32.5
2017-02-24T00:36:39.305Z,32.5
2017-02-24T00:37:39.338Z,32.5
2017-02-24T00:38:38.366Z,32.5
2017-02-24T00:39:39.416Z,32.5
2017-02-24T00:40:38.411Z,32.5
2017-02-24T00:41:39.742Z,32.5
2017-02-24T00:42:38.536Z,32.5
2017-02-24T00:43:39.539Z,32.5
2017-02-24T00:44:38.582Z,32.5
2017-02-24T00:45:39.676Z,32.5
2017-02-24T00:46:39.817Z,32.5
2017-02-24T00:47:38.721Z,32.5
2017-02-24T00:48:38.891Z,32.5
2017-02-24T00:49:38.809Z,32.5
2017-02-24T00:50:39.903Z,32.5
2017-02-24T00:51:39.935Z,32.5
2017-02-24T00:52:38.965Z,32.5
2017-02-24T00:53:38.927Z,32.5
2017-02-24T00:54:40.062Z,32.5
2017-02-24T00:55:40.054Z,32.5
2017-02-24T00:56:39.102Z,32.5
2017-02-24T00:57:40.156Z,32.5
2017-02-24T00:58:40.244Z,32.5
2017-02-24T00:59:40.249Z,32.5
2017-02-24T01:00:40.332Z,32.5
2017-02-24T01:01:40.435Z,32.5
2017-02-24T01:02:40.570Z,32.5
2017-02-24T01:03:40.643Z,32.5
2017-02-24T01:04:40.695Z,32.5
2017-02-24T01:05:40.783Z,32.5
2017-02-24T01:06:40.764Z,32.5
2017-02-24T01:07:40.891Z,32.5
2017-02-24T01:08:40.939Z,32.5
2017-02-24T01:09:39.941Z,32.5
2017-02-24T01:10:41.146Z,32.5
2017-02-24T01:11:40.086Z,32.5
2017-02-24T01:12:41.208Z,32.5
2017-02-24T01:13:40.136Z,32.5
2017-02-24T01:14:41.213Z,32.5
2017-02-24T01:15:40.160Z,32.5
2017-02-24T01:16:40.282Z,32.5
2017-02-24T01:17:41.411Z,32.5
2017-02-24T01:18:40.334Z,32.5
2017-02-24T01:19:41.376Z,32.5
2017-02-24T01:20:40.377Z,32.5
2017-02-24T01:21:40.404Z,32.5
2017-02-24T01:22:41.491Z,32.5
2017-02-24T01:23:40.514Z,32.5
2017-02-24T01:24:41.532Z,32.5
2017-02-24T01:25:41.653Z,32.5
2017-02-24T01:26:41.645Z,32.5
2017-02-24T01:27:41.990Z,32.5
2017-02-24T01:28:40.657Z,32.5
2017-02-24T01:29:41.754Z,32.5
2017-02-24T01:30:40.797Z,32.5
2017-02-24T01:31:40.785Z,32.5
2017-02-24T01:32:41.943Z,32.5
2017-02-24T01:33:42.188Z,32.5
2017-02-24T01:34:41.996Z,32.5
2017-02-24T01:35:40.982Z,32.5
2017-02-24T01:36:42.050Z,32.5
2017-02-24T01:37:41.112Z,32.5
2017-02-24T01:38:42.148Z,32.5
2017-02-24T01:39:41.360Z,32.5
2017-02-24T01:40:42.219Z,32.5
2017-02-24T01:41:41.067Z,32.5
2017-02-24T01:42:42.143Z,32.5
2017-02-24T01:43:42.196Z,32.5
2017-02-24T01:44:42.279Z,32.5
2017-02-24T01:45:42.658Z,32.5
2017-02-24T01:46:41.415Z,32.5
2017-02-24T01:47:41.401Z,32.5
2017-02-24T01:48:41.508Z,32.5
2017-02-24T01:49:41.516Z,32.5
2017-02-24T01:50:42.570Z,32.5
2017-02-24T01:51:42.896Z,32.5
2017-02-24T01:52:42.690Z,32.5
2017-02-24T01:53:42.702Z,32.5
2017-02-24T01:54:42.745Z,32.5
2017-02-24T01:55:42.849Z,32.5
2017-02-24T01:56:41.787Z,32.5
2017-02-24T01:57:43.273Z,32.5
2017-02-24T01:58:41.813Z,32.5
2017-02-24T01:59:41.881Z,32.5
2017-02-24T02:00:42.903Z,32.5
2017-02-24T02:01:42.958Z,32.5
2017-02-24T02:02:41.944Z,32.5
2017-02-24T02:03:42.277Z,32.5
2017-02-24T02:04:42.018Z,32.5
2017-02-24T02:05:43.121Z,32.5
2017-02-24T02:06:42.200Z,32.4
2017-02-24T02:07:42.207Z,32.4
2017-02-24T02:08:43.272Z,32.4
2017-02-24T02:09:42.552Z,32.4
2017-02-24T02:10:44.008Z,32.4
2017-02-24T02:11:43.303Z,32.4
2017-02-24T02:12:43.384Z,32.4
2017-02-24T02:13:42.294Z,32.4
2017-02-24T02:14:42.389Z,32.4
2017-02-24T02:15:42.844Z,32.4
2017-02-24T02:16:42.623Z,32.4
2017-02-24T02:17:42.606Z,32.4
2017-02-24T02:18:43.734Z,32.4
2017-02-24T02:19:42.778Z,32.4
2017-02-24T02:20:42.834Z,32.4
2017-02-24T02:21:44.868Z,32.4
2017-02-24T02:22:42.855Z,32.4
2017-02-24T02:23:44.009Z,32.4
2017-02-24T02:24:44.074Z,32.4
2017-02-24T02:25:44.024Z,32.4
2017-02-24T02:26:44.027Z,32.4
2017-02-24T02:27:44.356Z,32.4
2017-02-24T02:28:43.016Z,32.4
2017-02-24T02:29:44.194Z,32.4
2017-02-24T02:30:43.100Z,32.4
2017-02-24T02:31:44.279Z,32.4
2017-02-24T02:32:44.312Z,32.4
2017-02-24T02:33:44.552Z,32.4
2017-02-24T02:34:44.326Z,32.4
2017-02-24T02:35:43.276Z,32.4
2017-02-24T02:36:43.354Z,32.4
2017-02-24T02:37:43.406Z,32.4
2017-02-24T02:38:44.533Z,32.4
2017-02-24T02:39:43.833Z,32.4
2017-02-24T02:40:44.578Z,32.4
2017-02-24T02:41:43.486Z,32.4
2017-02-24T02:42:44.717Z,32.4
2017-02-24T02:43:44.691Z,32.4
2017-02-24T02:44:43.741Z,32.4
2017-02-24T02:45:45.095Z,32.4
2017-02-24T02:46:44.832Z,32.4
2017-02-24T02:47:43.819Z,32.4
2017-02-24T02:48:43.797Z,32.4
2017-02-24T02:49:44.942Z,32.4
2017-02-24T02:50:43.864Z,32.4
2017-02-24T02:51:45.208Z,32.4
2017-02-24T02:52:44.949Z,32.4
2017-02-24T02:53:43.950Z,32.4
2017-02-24T02:54:43.988Z,32.4
2017-02-24T02:55:44.087Z,32.4
2017-02-24T02:56:44.122Z,32.4
2017-02-24T02:57:44.475Z,32.4
2017-02-24T02:58:44.302Z,32.4
2017-02-24T02:59:44.295Z,32.4
2017-02-24T03:00:44.234Z,32.4
2017-02-24T03:01:44.254Z,32.4
2017-02-24T03:02:44.948Z,32.4
2017-02-24T03:03:46.647Z,32.4
2017-02-24T03:04:44.341Z,32.4
2017-02-24T03:05:45.519Z,32.4
2017-02-24T03:06:45.634Z,32.4
2017-02-24T03:07:45.603Z,32.4
2017-02-24T03:08:44.656Z,32.4
2017-02-24T03:09:46.072Z,32.4
2017-02-24T03:10:45.798Z,32.4
2017-02-24T03:11:45.798Z,32.4
2017-02-24T03:12:45.946Z,32.4
2017-02-24T03:13:46.005Z,32.4
2017-02-24T03:14:46.010Z,32.4
2017-02-24T03:15:46.411Z,32.4
2017-02-24T03:16:46.112Z,32.4
2017-02-24T03:17:46.260Z,32.4
2017-02-24T03:18:46.270Z,32.4
2017-02-24T03:19:45.379Z,32.3
2017-02-24T03:20:45.444Z,32.4
2017-02-24T03:21:45.710Z,32.4
2017-02-24T03:22:45.539Z,32.3
2017-02-24T03:23:47.235Z,32.3
2017-02-24T03:24:46.659Z,32.3
2017-02-24T03:25:45.780Z,32.3
2017-02-24T03:26:46.858Z,32.3
2017-02-24T03:27:46.086Z,32.3
2017-02-24T03:28:45.798Z,32.3
2017-02-24T03:29:45.960Z,32.3
2017-02-24T03:30:46.002Z,32.3
2017-02-24T03:31:47.033Z,32.3
2017-02-24T03:32:46.022Z,32.3
2017-02-24T03:33:47.410Z,32.3
2017-02-24T03:34:46.112Z,32.3
2017-02-24T03:35:47.305Z,32.3
2017-02-24T03:36:46.310Z,32.3
2017-02-24T03:37:47.440Z,32.3
2017-02-24T03:38:46.484Z,32.3
2017-02-24T03:39:46.780Z,32.3
2017-02-24T03:40:47.640Z,32.3
2017-02-24T03:41:46.689Z,32.3
2017-02-24T03:42:46.697Z,32.3
2017-02-24T03:43:47.676Z,32.3
2017-02-24T03:44:47.754Z,32.3
2017-02-24T03:45:47.018Z,32.3
2017-02-24T03:46:47.820Z,32.3
2017-02-24T03:47:46.961Z,32.3
2017-02-24T03:48:46.867Z,32.3
2017-02-24T03:49:48.078Z,32.3
2017-02-24T03:50:46.986Z,32.3
2017-02-24T03:51:48.419Z,32.3
2017-02-24T03:52:47.004Z,32.3
2017-02-24T03:53:47.051Z,32.3
2017-02-24T03:54:47.196Z,32.3
2017-02-24T03:55:48.232Z,32.3
2017-02-24T03:56:47.168Z,32.3
2017-02-24T03:57:48.628Z,32.3
2017-02-24T03:58:48.363Z,32.3
2017-02-24T03:59:48.442Z,32.3
2017-02-24T04:00:47.401Z,32.3
2017-02-24T04:01:47.546Z,32.3
2017-02-24T04:02:47.575Z,32.3
2017-02-24T04:03:49.005Z,32.3
2017-02-24T04:04:48.601Z,32.3
2017-02-24T04:05:47.572Z,32.3
2017-02-24T04:06:48.774Z,32.3
2017-02-24T04:07:48.845Z,32.3
2017-02-24T04:08:48.802Z,32.3
2017-02-24T04:09:49.116Z,32.3
2017-02-24T04:10:49.003Z,32.3
2017-02-24T04:11:48.013Z,32.3
2017-02-24T04:12:49.153Z,32.3
2017-02-24T04:13:48.247Z,32.3
2017-02-24T04:14:49.285Z,32.3
2017-02-24T04:15:48.498Z,32.2
2017-02-24T04:16:49.442Z,32.3
2017-02-24T04:17:48.447Z,32.2
2017-02-24T04:18:48.488Z,32.3
2017-02-24T04:19:50.197Z,32.2
2017-02-24T04:20:48.590Z,32.2
2017-02-24T04:21:49.887Z,32.2
2017-02-24T04:22:49.768Z,32.2
2017-02-24T04:23:49.752Z,32.2
2017-02-24T04:24:49.778Z,32.2
2017-02-24T04:25:49.914Z,32.2
2017-02-24T04:26:49.951Z,32.2
2017-02-24T04:27:50.340Z,32.2
2017-02-24T04:28:49.044Z,32.2
2017-02-24T04:29:50.114Z,32.2
2017-02-24T04:30:48.957Z,32.2
2017-02-24T04:31:50.123Z,32.2
2017-02-24T04:32:49.061Z,32.2
2017-02-24T04:33:50.004Z,32.2
2017-02-24T04:34:49.171Z,32.2
2017-02-24T04:35:49.206Z,32.2
2017-02-24T04:36:49.255Z,32.3
2017-02-24T04:37:50.444Z,32.3
2017-02-24T04:38:49.486Z,32.3
2017-02-24T04:39:50.755Z,32.3
2017-02-24T04:40:50.610Z,32.3
2017-02-24T04:41:50.531Z,32.3
2017-02-24T04:42:49.465Z,32.4
2017-02-24T04:43:49.629Z,32.4
2017-02-24T04:44:50.622Z,32.4
2017-02-24T04:45:51.081Z,32.4
2017-02-24T04:46:50.714Z,32.4
2017-02-24T04:47:49.752Z,32.4
2017-02-24T04:48:50.901Z,32.4
2017-02-24T04:49:50.838Z,32.4
2017-02-24T04:50:49.789Z,32.4
2017-02-24T04:51:51.243Z,32.4
2017-02-24T04:52:49.926Z,32.4
2017-02-24T04:53:50.980Z,32.4
2017-02-24T04:54:51.106Z,32.4
2017-02-24T04:55:51.105Z,32.4
2017-02-24T04:56:51.262Z,32.4
2017-02-24T04:57:51.594Z,32.4
2017-02-24T04:58:50.392Z,32.4
2017-02-24T04:59:50.373Z,32.4
2017-02-24T05:00:50.438Z,32.4
2017-02-24T05:01:51.492Z,32.4
2017-02-24T05:02:51.494Z,32.4
2017-02-24T05:03:50.885Z,32.4
2017-02-24T05:04:51.546Z,32.4
2017-02-24T05:05:50.485Z,32.4
2017-02-24T05:06:50.522Z,32.4
2017-02-24T05:07:51.706Z,32.4
2017-02-24T05:08:51.717Z,32.4
2017-02-24T05:09:50.984Z,32.4
2017-02-24T05:10:51.873Z,32.4
2017-02-24T05:11:51.823Z,32.4
2017-02-24T05:12:51.995Z,32.4
2017-02-24T05:13:50.996Z,32.4
2017-02-24T05:14:52.054Z,32.4
2017-02-24T05:15:52.367Z,32.4
2017-02-24T05:16:52.167Z,32.4
2017-02-24T05:17:51.152Z,32.4
2017-02-24T05:18:51.208Z,32.4
2017-02-24T05:19:51.200Z,32.4
2017-02-24T05:20:51.244Z,32.4
2017-02-24T05:21:51.536Z,32.4
2017-02-24T05:22:52.391Z,32.4
2017-02-24T05:23:52.479Z,32.4
2017-02-24T05:24:52.495Z,32.4
2017-02-24T05:25:51.357Z,32.4
2017-02-24T05:26:51.417Z,32.4
2017-02-24T05:27:52.819Z,32.4
2017-02-24T05:28:51.598Z,32.4
2017-02-24T05:29:52.649Z,32.4
2017-02-24T05:30:51.733Z,32.4
2017-02-24T05:31:52.735Z,32.4
2017-02-24T05:32:52.761Z,32.4
2017-02-24T05:33:52.028Z,32.4
2017-02-24T05:34:53.001Z,32.4
2017-02-24T05:35:53.018Z,32.4
2017-02-24T05:36:52.105Z,32.4
2017-02-24T05:37:53.098Z,32.4
2017-02-24T05:38:52.112Z,32.4
2017-02-24T05:39:53.428Z,32.4
2017-02-24T05:40:53.198Z,32.3
2017-02-24T05:41:52.115Z,32.3
2017-02-24T05:42:52.238Z,32.3
2017-02-24T05:43:52.339Z,32.3
2017-02-24T05:44:52.333Z,32.3
2017-02-24T05:45:53.698Z,32.3
2017-02-24T05:46:53.512Z,32.3
2017-02-24T05:47:52.556Z,32.3
2017-02-24T05:48:52.518Z,32.3
2017-02-24T05:49:52.584Z,32.3
2017-02-24T05:50:52.715Z,32.3
2017-02-24T05:51:52.979Z,32.3
2017-02-24T05:52:53.859Z,32.3
2017-02-24T05:53:52.874Z,32.3
2017-02-24T05:54:53.930Z,32.3
2017-02-24T05:55:52.895Z,32.3
2017-02-24T05:56:54.034Z,32.3
2017-02-24T05:57:53.356Z,32.3
2017-02-24T05:58:54.158Z,31.7
2017-02-24T05:59:54.306Z,31.5
2017-02-24T06:00:54.335Z,30.6
2017-02-24T06:01:54.404Z,30.5
2017-02-24T06:02:53.414Z,31.1
2017-02-24T06:03:54.787Z,31.5
2017-02-24T06:04:54.507Z,31.8
2017-02-24T06:05:54.567Z,32
2017-02-24T06:06:54.611Z,32.2
2017-02-24T06:07:53.647Z,32.3
2017-02-24T06:08:54.737Z,32.4
2017-02-24T06:09:53.927Z,32.5
2017-02-24T06:10:53.733Z,32.5
2017-02-24T06:11:53.722Z,32.5
2017-02-24T06:12:54.876Z,32.6
2017-02-24T06:13:53.945Z,32.6
2017-02-24T06:14:54.938Z,32.5
2017-02-24T06:15:55.302Z,32.5
2017-02-24T06:16:55.034Z,32.5
2017-02-24T06:17:53.960Z,32.5
2017-02-24T06:18:54.096Z,32.4
2017-02-24T06:19:54.096Z,32.4
2017-02-24T06:20:54.124Z,32.4
2017-02-24T06:21:55.551Z,32.4
2017-02-24T06:22:55.238Z,32.4
2017-02-24T06:23:55.230Z,32.4
2017-02-24T06:24:54.304Z,32.3
2017-02-24T06:25:55.350Z,32.3
2017-02-24T06:26:54.385Z,32.3
2017-02-24T06:27:55.661Z,32.3
2017-02-24T06:28:54.404Z,32.3
2017-02-24T06:29:55.459Z,32.2
2017-02-24T06:30:54.472Z,32.2
2017-02-24T06:31:55.583Z,32.2
2017-02-24T06:32:55.578Z,32.2
2017-02-24T06:33:56.028Z,32.2
2017-02-24T06:34:54.655Z,32.2
2017-02-24T06:35:55.731Z,32.2
2017-02-24T06:36:54.667Z,32.2
2017-02-24T06:37:55.806Z,32.2
2017-02-24T06:38:54.774Z,32.2
2017-02-24T06:39:56.151Z,32.2
2017-02-24T06:40:55.997Z,32.2
2017-02-24T06:41:56.043Z,32.1
2017-02-24T06:42:55.014Z,32.1
2017-02-24T06:43:54.916Z,32.1
2017-02-24T06:44:54.908Z,31.9
2017-02-24T06:45:56.224Z,31.1
2017-02-24T06:46:55.020Z,30.3
2017-02-24T06:47:56.090Z,29.9
2017-02-24T06:48:55.033Z,30.3
2017-02-24T06:49:55.085Z,30.2
2017-02-24T06:50:55.149Z,30.3
2017-02-24T06:51:57.237Z,30.5
2017-02-24T06:52:55.162Z,30.6
2017-02-24T06:53:56.380Z,30.9
2017-02-24T06:54:56.418Z,31.2
2017-02-24T06:55:55.416Z,31.3
2017-02-24T06:56:55.540Z,31.7
2017-02-24T06:57:56.941Z,31.8
2017-02-24T06:58:56.675Z,31.8
2017-02-24T06:59:56.719Z,32
2017-02-24T07:00:55.774Z,32.1
2017-02-24T07:01:55.796Z,32.2
2017-02-24T07:02:57.004Z,32.4
2017-02-24T07:03:57.280Z,32.5
2017-02-24T07:04:56.023Z,32.6
2017-02-24T07:05:55.947Z,32.5
2017-02-24T07:06:56.057Z,32.7
2017-02-24T07:07:57.161Z,32.8
2017-02-24T07:08:57.096Z,32.8
2017-02-24T07:09:57.471Z,32.9
2017-02-24T07:10:56.117Z,32.9
2017-02-24T07:11:57.288Z,32.7
2017-02-24T07:12:57.310Z,32.9
2017-02-24T07:13:56.338Z,32.9
2017-02-24T07:14:57.378Z,32.9
2017-02-24T07:15:56.708Z,32.9
2017-02-24T07:16:57.525Z,32.9
2017-02-24T07:17:57.516Z,32.9
2017-02-24T07:18:56.430Z,32.9
2017-02-24T07:19:57.611Z,33.1
2017-02-24T07:20:56.521Z,33.2
2017-02-24T07:21:57.977Z,33.1
2017-02-24T07:22:56.724Z,33.2
2017-02-24T07:23:57.847Z,33.3
2017-02-24T07:24:57.826Z,33.2
2017-02-24T07:25:57.877Z,33.2
2017-02-24T07:26:56.832Z,33.2
2017-02-24T07:27:58.429Z,33.3
2017-02-24T07:28:57.044Z,33.4
2017-02-24T07:29:58.110Z,33.5
2017-02-24T07:30:58.205Z,33.5
2017-02-24T07:31:58.251Z,33.6
2017-02-24T07:32:59.064Z,33.7
2017-02-24T07:33:57.485Z,33.7
2017-02-24T07:34:58.290Z,33.7
2017-02-24T07:35:57.286Z,33.7
2017-02-24T07:36:58.482Z,33.6
2017-02-24T07:37:57.391Z,33.6
2017-02-24T07:38:58.533Z,33.5
2017-02-24T07:39:57.844Z,33.5
2017-02-24T07:40:58.567Z,33.4
2017-02-24T07:41:58.743Z,33.6
2017-02-24T07:42:57.716Z,33.8
2017-02-24T07:43:57.868Z,33.9
2017-02-24T07:44:57.861Z,33.9
2017-02-24T07:45:58.314Z,33.9
2017-02-24T07:46:58.012Z,33.8
2017-02-24T07:47:58.695Z,33.7
2017-02-24T07:48:58.099Z,33.6
2017-02-24T07:49:58.218Z,33.5
2017-02-24T07:50:58.233Z,33.4
2017-02-24T07:51:59.555Z,33.3
2017-02-24T07:52:58.325Z,33.1
2017-02-24T07:53:58.348Z,33.1
2017-02-24T07:54:58.991Z,33
2017-02-24T07:55:59.521Z,32.9
2017-02-24T07:56:59.563Z,32.8
2017-02-24T07:57:58.663Z,32.7
2017-02-24T07:58:59.556Z,32.6
2017-02-24T07:59:58.625Z,32.5
2017-02-24T08:00:58.580Z,32.4
2017-02-24T08:01:59.759Z,32.3
2017-02-24T08:02:58.676Z,32.3
2017-02-24T08:04:00.120Z,32.2
2017-02-24T08:04:59.835Z,32.2
2017-02-24T08:05:59.838Z,32.2
2017-02-24T08:06:58.846Z,32.1
2017-02-24T08:08:00.091Z,32
2017-02-24T08:09:00.075Z,32
2017-02-24T08:10:02.021Z,31.9
2017-02-24T08:10:58.987Z,31.9
2017-02-24T08:11:59.001Z,31.8
2017-02-24T08:13:00.122Z,31.8
2017-02-24T08:13:59.056Z,31.7
2017-02-24T08:14:59.166Z,31.7
2017-02-24T08:16:01.126Z,31.6
2017-02-24T08:17:00.306Z,31.5
2017-02-24T08:17:59.935Z,31.5
2017-02-24T08:19:00.290Z,31.4
2017-02-24T08:20:00.435Z,31.4
2017-02-24T08:20:59.424Z,31.4
2017-02-24T08:22:01.245Z,31.4
2017-02-24T08:23:01.228Z,31.4
2017-02-24T08:23:59.409Z,31.4
2017-02-24T08:25:00.537Z,31.4
2017-02-24T08:26:00.564Z,31.3
2017-02-24T08:27:01.224Z,31.3
2017-02-24T08:28:00.951Z,31.3
2017-02-24T08:29:00.684Z,31.3
2017-02-24T08:30:00.346Z,31.3
2017-02-24T08:30:59.746Z,31.3
2017-02-24T08:32:01.552Z,31.3
2017-02-24T08:33:00.565Z,31.2
2017-02-24T08:34:01.224Z,31.1
2017-02-24T08:35:00.070Z,31.1
2017-02-24T08:36:00.042Z,31
2017-02-24T08:37:01.400Z,30.9
2017-02-24T08:38:01.199Z,30.8
2017-02-24T08:39:00.094Z,30.8
2017-02-24T08:40:00.443Z,30.7
2017-02-24T08:41:01.277Z,30.6
2017-02-24T08:42:01.463Z,30.6
2017-02-24T08:43:00.425Z,30.5
2017-02-24T08:44:00.492Z,30.4
2017-02-24T08:45:01.059Z,30.4
2017-02-24T08:46:01.397Z,30.4
2017-02-24T08:47:00.613Z,30.4
2017-02-24T08:48:00.566Z,30.3
2017-02-24T08:49:00.651Z,30.2
2017-02-24T08:50:00.745Z,30.2
2017-02-24T08:51:01.823Z,30.1
2017-02-24T08:52:01.045Z,30.1
2017-02-24T08:53:01.977Z,30.1
2017-02-24T08:54:01.944Z,30.1
2017-02-24T08:55:02.048Z,30
2017-02-24T08:56:01.968Z,30
2017-02-24T08:57:01.992Z,29.9
2017-02-24T08:58:01.279Z,30
2017-02-24T08:59:02.054Z,30
2017-02-24T09:00:02.766Z,30.1
2017-02-24T09:01:01.116Z,30.2
2017-02-24T09:02:01.113Z,30.4
2017-02-24T09:03:01.228Z,30.5
2017-02-24T09:04:03.243Z,30.6
2017-02-24T09:05:01.257Z,30.8
2017-02-24T09:06:01.271Z,30.9
2017-02-24T09:07:02.340Z,31
2017-02-24T09:08:02.446Z,31
2017-02-24T09:09:02.397Z,31.1
2017-02-24T09:10:02.834Z,31.2
2017-02-24T09:11:03.598Z,31.2
2017-02-24T09:12:02.640Z,31.2
2017-02-24T09:13:02.764Z,31.3
2017-02-24T09:14:02.808Z,31.4
2017-02-24T09:15:02.472Z,31.5
2017-02-24T09:16:02.083Z,31.6
2017-02-24T09:17:02.893Z,31.6
2017-02-24T09:18:03.499Z,31.7
2017-02-24T09:19:03.011Z,31.8
2017-02-24T09:20:03.030Z,31.9
2017-02-24T09:21:03.705Z,31.9
2017-02-24T09:22:02.376Z,32
2017-02-24T09:23:03.157Z,32
2017-02-24T09:24:03.226Z,32.1
2017-02-24T09:25:02.160Z,32.1
2017-02-24T09:26:03.333Z,32.1
2017-02-24T09:27:03.450Z,32.2
2017-02-24T09:28:03.672Z,32.2
2017-02-24T09:29:03.487Z,32.2
2017-02-24T09:30:02.464Z,32.2
2017-02-24T09:31:04.322Z,32.2
2017-02-24T09:32:02.655Z,32.2
2017-02-24T09:33:03.716Z,32.2
2017-02-24T09:34:02.969Z,32.2
2017-02-24T09:35:03.732Z,32.2
2017-02-24T09:36:03.400Z,32.2
2017-02-24T09:37:03.850Z,32.2
2017-02-24T09:38:03.929Z,32.2
2017-02-24T09:39:02.966Z,32.2
2017-02-24T09:40:04.950Z,32.2
2017-02-24T09:41:03.028Z,32.2
2017-02-24T09:42:04.177Z,32.1
2017-02-24T09:43:04.291Z,32.1
2017-02-24T09:44:03.262Z,32.1
2017-02-24T09:45:04.351Z,32.1
2017-02-24T09:46:04.789Z,32
2017-02-24T09:47:03.414Z,32
2017-02-24T09:48:04.503Z,31.9
2017-02-24T09:49:04.482Z,31.9
2017-02-24T09:50:04.254Z,31.8
2017-02-24T09:51:04.702Z,31.8
2017-02-24T09:52:03.796Z,31.7
2017-02-24T09:53:04.443Z,31.7
2017-02-24T09:54:04.843Z,31.7
2017-02-24T09:55:04.837Z,31.7
2017-02-24T09:56:03.750Z,31.6
2017-02-24T09:57:06.798Z,31.6
2017-02-24T09:58:04.972Z,31.6
2017-02-24T09:59:04.456Z,31.6
2017-02-24T10:00:04.998Z,31.5
2017-02-24T10:01:03.976Z,31.5
2017-02-24T10:02:04.099Z,31.5
2017-02-24T10:03:04.203Z,31.5
2017-02-24T10:04:04.208Z,31.5
2017-02-24T10:05:04.308Z,31.5
2017-02-24T10:06:05.368Z,31.5
2017-02-24T10:07:05.470Z,31.5
2017-02-24T10:08:05.408Z,31.4
2017-02-24T10:09:04.899Z,31.4
2017-02-24T10:10:04.491Z,31.4
2017-02-24T10:11:04.460Z,31.4
2017-02-24T10:12:05.641Z,31.4
2017-02-24T10:13:05.747Z,31.3
2017-02-24T10:14:05.740Z,31.3
2017-02-24T10:15:05.819Z,31.4
2017-02-24T10:16:07.510Z,31.4
2017-02-24T10:17:04.629Z,31.3
2017-02-24T10:18:04.727Z,31.4
2017-02-24T10:19:05.440Z,31.4
2017-02-24T10:20:04.869Z,31.4
2017-02-24T10:21:09.058Z,31.5
2017-02-24T10:22:04.924Z,31.5
2017-02-24T10:23:05.592Z,31.6
2017-02-24T10:24:06.615Z,31.6
2017-02-24T10:25:05.155Z,31.6
2017-02-24T10:26:06.155Z,31.7
2017-02-24T10:27:05.151Z,31.8
2017-02-24T10:28:05.145Z,31.8
2017-02-24T10:29:05.973Z,31.8
2017-02-24T10:30:05.203Z,31.8
2017-02-24T10:31:07.591Z,31.9
2017-02-24T10:32:06.406Z,31.9
2017-02-24T10:33:06.486Z,32
2017-02-24T10:34:05.481Z,32
2017-02-24T10:35:05.439Z,32
2017-02-24T10:36:05.648Z,32.1
2017-02-24T10:37:05.662Z,32.1
2017-02-24T10:38:06.750Z,32.2
2017-02-24T10:39:05.803Z,32.2
2017-02-24T10:40:05.749Z,32.2
2017-02-24T10:41:05.767Z,32.3
2017-02-24T10:42:06.922Z,32.2
2017-02-24T10:43:07.086Z,32.3
2017-02-24T10:44:06.675Z,32.3
2017-02-24T10:45:06.096Z,32.3
2017-02-24T10:46:07.214Z,32.3
2017-02-24T10:47:06.221Z,32.3
2017-02-24T10:48:07.334Z,32.4
2017-02-24T10:49:06.184Z,32.4
2017-02-24T10:50:06.190Z,32.4
2017-02-24T10:51:06.354Z,32.4
2017-02-24T10:52:06.343Z,32.4
2017-02-24T10:53:07.440Z,32.5
2017-02-24T10:54:06.527Z,32.5
2017-02-24T10:55:06.583Z,32.5
2017-02-24T10:56:07.759Z,32.5
2017-02-24T10:57:07.745Z,32.6
2017-02-24T10:58:06.678Z,32.6
2017-02-24T10:59:06.810Z,32.7
2017-02-24T11:00:06.909Z,32.7
2017-02-24T11:01:06.946Z,32.7
2017-02-24T11:02:07.151Z,32.7
2017-02-24T11:03:07.667Z,32.8
2017-02-24T11:04:08.279Z,32.8
2017-02-24T11:05:08.296Z,32.8
2017-02-24T11:06:07.327Z,32.9
2017-02-24T11:07:07.418Z,32.9
2017-02-24T11:08:07.308Z,32.9
2017-02-24T11:09:08.475Z,32.9
2017-02-24T11:10:08.441Z,33
2017-02-24T11:11:09.015Z,33
2017-02-24T11:12:08.087Z,33
2017-02-24T11:13:07.551Z,33
2017-02-24T11:14:07.474Z,33
2017-02-24T11:15:07.878Z,33
2017-02-24T11:16:08.798Z,33
2017-02-24T11:17:08.851Z,33
2017-02-24T11:18:08.781Z,33
2017-02-24T11:19:07.891Z,33
2017-02-24T11:20:08.914Z,33
2017-02-24T11:21:09.914Z,33
2017-02-24T11:22:08.983Z,33
2017-02-24T11:23:09.013Z,33
2017-02-24T11:24:08.032Z,33
2017-02-24T11:25:09.251Z,33
2017-02-24T11:26:09.144Z,33
2017-02-24T11:27:09.451Z,33
2017-02-24T11:28:09.223Z,33
2017-02-24T11:29:08.239Z,33
2017-02-24T11:30:08.059Z,33
2017-02-24T11:31:09.153Z,33
2017-02-24T11:32:09.246Z,33
2017-02-24T11:33:08.439Z,33
2017-02-24T11:34:09.208Z,33
2017-02-24T11:35:09.291Z,33
2017-02-24T11:36:08.306Z,33
2017-02-24T11:37:09.431Z,33.1
2017-02-24T11:38:09.505Z,33.1
2017-02-24T11:39:08.835Z,33.1
2017-02-24T11:40:09.573Z,33.1
2017-02-24T11:41:08.516Z,33.1
2017-02-24T11:42:08.565Z,33.1
2017-02-24T11:43:08.597Z,33.1
2017-02-24T11:44:08.720Z,33.1
2017-02-24T11:45:09.991Z,33.1
2017-02-24T11:46:09.826Z,33.1
2017-02-24T11:47:08.785Z,33.1
2017-02-24T11:48:08.891Z,33.1
2017-02-24T11:49:08.813Z,33.1
2017-02-24T11:50:08.872Z,33.1
2017-02-24T11:51:10.386Z,33.1
2017-02-24T11:52:09.152Z,33.1
2017-02-24T11:53:10.131Z,33.1
2017-02-24T11:54:09.141Z,33.1
2017-02-24T11:55:09.152Z,33.1
2017-02-24T11:56:09.250Z,33.1
2017-02-24T11:57:09.615Z,33.1
2017-02-24T11:58:10.012Z,33.1
2017-02-24T11:59:09.423Z,33.1
2017-02-24T12:00:10.461Z,33.1
2017-02-24T12:01:10.504Z,33.1
2017-02-24T12:02:09.566Z,33.1
2017-02-24T12:03:10.929Z,33.1
2017-02-24T12:04:11.741Z,33.2
2017-02-24T12:05:10.813Z,33.2
2017-02-24T12:06:10.900Z,33.2
2017-02-24T12:07:09.810Z,33.2
2017-02-24T12:08:09.909Z,33.2
2017-02-24T12:09:10.245Z,32.8
2017-02-24T12:10:11.010Z,30.9
2017-02-24T12:11:11.798Z,30
2017-02-24T12:12:10.063Z,29.3
2017-02-24T12:13:10.134Z,28.8
2017-02-24T12:14:11.284Z,28.6
2017-02-24T12:15:11.651Z,28.2
2017-02-24T12:16:12.104Z,28
2017-02-24T12:17:10.330Z,27.9
2017-02-24T12:18:10.376Z,27.8
2017-02-24T12:19:10.424Z,27.8
2017-02-24T12:20:10.517Z,27.8
2017-02-24T12:21:10.877Z,27.8
2017-02-24T12:22:10.601Z,27.7
2017-02-24T12:23:11.657Z,27.5
2017-02-24T12:24:10.626Z,27.4
2017-02-24T12:25:10.678Z,27.5
2017-02-24T12:26:10.806Z,27.3
2017-02-24T12:27:11.064Z,27.1
2017-02-24T12:28:11.920Z,27
2017-02-24T12:29:12.126Z,27
2017-02-24T12:30:12.038Z,26.9
2017-02-24T12:31:10.950Z,26.9
2017-02-24T12:32:11.139Z,26.9
2017-02-24T12:33:12.384Z,26.9
2017-02-24T12:34:12.207Z,26.9
2017-02-24T12:35:12.170Z,26.9
2017-02-24T12:36:12.266Z,26.9
2017-02-24T12:37:11.241Z,26.8
2017-02-24T12:38:11.225Z,26.9
2017-02-24T12:39:12.610Z,27.1
2017-02-24T12:40:11.372Z,27.2
2017-02-24T12:41:11.398Z,27.3
2017-02-24T12:42:13.224Z,27.5
2017-02-24T12:43:11.511Z,27.6
2017-02-24T12:44:11.439Z,27.7
2017-02-24T12:45:11.837Z,27.7
2017-02-24T12:46:12.559Z,27.8
2017-02-24T12:47:11.625Z,27.8
2017-02-24T12:48:11.619Z,27.9
2017-02-24T12:49:11.608Z,28
2017-02-24T12:50:12.852Z,28.1
2017-02-24T12:51:12.101Z,28.2
2017-02-24T12:52:11.817Z,28.3
2017-02-24T12:53:11.917Z,28.4
2017-02-24T12:54:12.985Z,28.5
2017-02-24T12:55:13.133Z,28.6
2017-02-24T12:56:13.154Z,28.7
2017-02-24T12:57:12.426Z,28.8
2017-02-24T12:58:13.222Z,28.9
2017-02-24T12:59:12.243Z,29
2017-02-24T13:00:12.265Z,29
2017-02-24T13:01:12.408Z,29.1
2017-02-24T13:02:12.404Z,29.1
2017-02-24T13:03:13.778Z,29.2
2017-02-24T13:04:13.567Z,29.2
2017-02-24T13:05:12.508Z,29.3
2017-02-24T13:06:13.623Z,29.4
2017-02-24T13:07:13.681Z,29.4
2017-02-24T13:08:12.671Z,29.5
2017-02-24T13:09:13.037Z,29.6
2017-02-24T13:10:12.833Z,29.6
2017-02-24T13:11:12.872Z,29.7
2017-02-24T13:12:12.903Z,29.7
2017-02-24T13:13:13.102Z,29.8
2017-02-24T13:14:13.037Z,29.8
2017-02-24T13:15:14.427Z,29.9
2017-02-24T13:16:14.239Z,29.9
2017-02-24T13:17:14.256Z,30
2017-02-24T13:18:13.751Z,30
2017-02-24T13:19:13.364Z,30.1
2017-02-24T13:20:14.423Z,30.1
2017-02-24T13:21:13.699Z,30.2
2017-02-24T13:22:13.988Z,30.3
2017-02-24T13:23:13.598Z,30.3